createdAt,value
2023-04-01T00:00:24.906Z,98805.34
2023-04-01T00:02:53.097Z,98808.69
2023-04-01T00:05:21.141Z,98798.38
2023-04-01T00:07:49.348Z,98792.22
2023-04-01T00:10:17.323Z,98791.66
2023-04-01T00:12:45.464Z,98783.19
2023-04-01T00:15:13.667Z,98776.59
2023-04-01T00:17:43.086Z,98769.16
2023-04-01T00:20:12.171Z,98777.88
2023-04-01T00:22:40.131Z,98775.59
2023-04-01T00:25:08.737Z,98773.34
2023-04-01T00:27:36.644Z,98776.22
2023-04-01T00:30:04.774Z,98782.00
2023-04-01T00:32:32.768Z,98772.47
2023-04-01T00:35:02.125Z,98771.00
2023-04-01T00:37:30.048Z,98760.84
2023-04-01T00:39:58.025Z,98757.97
2023-04-01T00:42:26.828Z,98751.72
2023-04-01T00:44:55.408Z,98742.63
2023-04-01T00:47:23.555Z,98739.13
2023-04-01T00:49:52.500Z,98739.78
2023-04-01T00:52:24.033Z,98738.97
2023-04-01T00:54:54.101Z,98730.69
2023-04-01T00:57:23.904Z,98726.53
2023-04-01T00:59:53.721Z,98726.13
2023-04-01T01:02:21.763Z,98731.50
2023-04-01T01:04:49.783Z,98724.47
2023-04-01T01:07:23.059Z,98721.56
2023-04-01T01:09:54.235Z,98712.88
2023-04-01T01:12:23.388Z,98705.22
2023-04-01T01:14:57.560Z,98683.34
2023-04-01T01:17:31.808Z,98708.97
2023-04-01T01:20:25.404Z,98707.94
2023-04-01T01:23:00.120Z,98681.88
2023-04-01T01:25:34.294Z,98698.78
2023-04-01T01:28:10.451Z,98702.53
2023-04-01T01:30:41.415Z,98694.25
2023-04-01T01:33:31.488Z,98663.66
2023-04-01T01:36:00.912Z,98691.13
2023-04-01T01:38:29.819Z,98686.38
2023-04-01T01:40:58.832Z,98686.38
2023-04-01T01:43:28.877Z,98691.56
2023-04-01T01:45:57.739Z,98686.38
2023-04-01T01:48:25.955Z,98689.91
2023-04-01T01:50:54.007Z,98690.53
2023-04-01T01:53:23.342Z,98685.13
2023-04-01T01:55:51.771Z,98688.22
2023-04-01T01:58:21.569Z,98654.13
2023-04-01T02:00:52.286Z,98683.09
2023-04-01T02:03:20.407Z,98681.03
2023-04-01T02:05:48.396Z,98684.34
2023-04-01T02:08:18.006Z,98685.81
2023-04-01T02:10:49.493Z,98684.38
2023-04-01T02:13:19.097Z,98681.06
2023-04-01T02:15:48.538Z,98672.00
2023-04-01T02:18:16.632Z,98673.66
2023-04-01T02:20:45.543Z,98669.94
2023-04-01T02:23:13.531Z,98671.38
2023-04-01T02:25:41.481Z,98668.06
2023-04-01T02:28:10.948Z,98662.88
2023-04-01T02:30:40.119Z,98662.91
2023-04-01T02:33:08.122Z,98658.56
2023-04-01T02:35:36.665Z,98639.75
2023-04-01T02:38:04.639Z,98648.41
2023-04-01T02:40:44.034Z,98645.13
2023-04-01T02:43:13.374Z,98629.84
2023-04-01T02:45:41.334Z,98627.75
2023-04-01T02:48:09.248Z,98633.94
2023-04-01T02:50:37.173Z,98621.56
2023-04-01T02:53:07.329Z,98619.50
2023-04-01T02:55:35.560Z,98631.06
2023-04-01T02:58:03.736Z,98626.50
2023-04-01T03:00:33.109Z,98630.59
2023-04-01T03:03:01.564Z,98612.66
2023-04-01T03:05:29.709Z,98607.09
2023-04-01T03:07:57.841Z,98612.41
2023-04-01T03:10:25.789Z,98621.38
2023-04-01T03:12:53.781Z,98618.16
2023-04-01T03:15:21.791Z,98618.88
2023-04-01T03:17:51.148Z,98614.41
2023-04-01T03:20:19.345Z,98607.47
2023-04-01T03:22:47.825Z,98613.97
2023-04-01T03:25:15.810Z,98606.94
2023-04-01T03:27:43.808Z,98621.00
2023-04-01T03:30:12.359Z,98607.38
2023-04-01T03:32:40.856Z,98611.72
2023-04-01T03:35:11.510Z,98601.28
2023-04-01T03:37:39.678Z,98607.75
2023-04-01T03:40:08.655Z,98607.63
2023-04-01T03:42:36.916Z,98609.28
2023-04-01T03:45:05.614Z,98612.34
2023-04-01T03:47:33.596Z,98607.59
2023-04-01T03:50:01.604Z,98601.25
2023-04-01T03:52:30.936Z,98606.66
2023-04-01T03:54:58.869Z,98609.25
2023-04-01T03:57:27.521Z,98615.81
2023-04-01T03:59:55.528Z,98617.84
2023-04-01T04:02:23.595Z,98615.38
2023-04-01T04:04:51.578Z,98614.00
2023-04-01T04:07:19.543Z,98604.47
2023-04-01T04:09:48.884Z,98600.94
2023-04-01T04:12:16.836Z,98589.56
2023-04-01T04:14:44.811Z,98608.13
2023-04-01T04:17:17.039Z,98595.56
2023-04-01T04:19:45.047Z,98602.19
2023-04-01T04:22:12.962Z,98598.19
2023-04-01T04:24:40.897Z,98600.91
2023-04-01T04:27:10.196Z,98592.47
2023-04-01T04:29:38.145Z,98597.00
2023-04-01T04:32:06.334Z,98611.81
2023-04-01T04:34:34.606Z,98601.56
2023-04-01T04:37:02.597Z,98595.22
2023-04-01T04:39:30.802Z,98601.34
2023-04-01T04:41:58.728Z,98600.41
2023-04-01T04:44:28.107Z,98602.25
2023-04-01T04:46:58.372Z,98602.63
2023-04-01T04:49:26.689Z,98601.66
2023-04-01T04:51:54.707Z,98601.56
2023-04-01T04:54:22.611Z,98597.06
2023-04-01T04:56:50.742Z,98596.25
2023-04-01T04:59:18.677Z,98600.81
2023-04-01T05:01:48.042Z,98599.47
2023-04-01T05:04:16.046Z,98591.56
2023-04-01T05:06:45.016Z,98594.47
2023-04-01T05:09:13.005Z,98587.16
2023-04-01T05:11:41.283Z,98580.09
2023-04-01T05:14:14.520Z,98580.56
2023-04-01T05:16:42.536Z,98577.25
2023-04-01T05:19:11.904Z,98576.19
2023-04-01T05:21:39.873Z,98573.50
2023-04-01T05:24:10.202Z,98578.16
2023-04-01T05:26:38.857Z,98571.41
2023-04-01T05:29:06.946Z,98572.41
2023-04-01T05:31:35.567Z,98570.06
2023-04-01T05:34:03.666Z,98571.78
2023-04-01T05:36:32.989Z,98563.31
2023-04-01T05:39:00.968Z,98568.91
2023-04-01T05:41:28.954Z,98567.19
2023-04-01T05:43:57.305Z,98562.34
2023-04-01T05:46:25.285Z,98554.06
2023-04-01T05:48:53.298Z,98557.19
2023-04-01T05:51:21.315Z,98555.94
2023-04-01T05:53:50.769Z,98524.69
2023-04-01T05:56:18.703Z,98567.31
2023-04-01T05:58:46.741Z,98569.63
2023-04-01T06:01:16.526Z,98566.56
2023-04-01T06:03:44.926Z,98551.47
2023-04-01T06:06:16.558Z,98558.34
2023-04-01T06:08:44.724Z,98562.34
2023-04-01T06:11:24.837Z,98548.59
2023-04-01T06:14:12.305Z,98562.41
2023-04-01T06:16:47.000Z,98564.22
2023-04-01T06:19:23.762Z,98560.78
2023-04-01T06:22:12.985Z,98564.44
2023-04-01T06:25:06.925Z,98561.81
2023-04-01T06:27:46.317Z,98567.84
2023-04-01T06:30:35.995Z,98565.72
2023-04-01T06:33:22.438Z,98558.50
2023-04-01T06:35:59.285Z,98560.25
2023-04-01T06:38:42.626Z,98563.72
2023-04-01T06:41:42.491Z,98557.06
2023-04-01T06:44:19.517Z,98555.56
2023-04-01T06:46:48.347Z,98554.53
2023-04-01T06:49:35.834Z,98558.81
2023-04-01T06:52:07.938Z,98558.34
2023-04-01T06:54:36.876Z,98561.34
2023-04-01T06:57:07.752Z,98557.34
2023-04-01T06:59:37.549Z,98563.34
2023-04-01T07:02:08.801Z,98555.56
2023-04-01T07:04:37.881Z,98552.09
2023-04-01T07:07:07.409Z,98543.84
2023-04-01T07:09:36.815Z,98555.66
2023-04-01T07:12:08.295Z,98553.81
2023-04-01T07:14:38.471Z,98551.84
2023-04-01T07:17:08.039Z,98560.03
2023-04-01T07:19:37.532Z,98533.81
2023-04-01T07:22:06.863Z,98556.78
2023-04-01T07:24:35.823Z,98538.50
2023-04-01T07:27:03.833Z,98547.56
2023-04-01T07:29:31.771Z,98550.28
2023-04-01T07:32:24.292Z,98550.44
2023-04-01T07:34:58.222Z,98545.72
2023-04-01T07:37:30.371Z,98532.19
2023-04-01T07:40:00.960Z,98523.03
2023-04-01T07:42:32.701Z,98524.56
2023-04-01T07:45:03.906Z,98520.84
2023-04-01T07:47:47.995Z,98519.94
2023-04-01T07:50:20.883Z,98518.34
2023-04-01T07:52:52.877Z,98513.56
2023-04-01T07:55:22.618Z,98523.69
2023-04-01T07:57:52.170Z,98508.59
2023-04-01T08:00:21.558Z,98507.31
2023-04-01T08:03:08.372Z,98494.91
2023-04-01T08:05:38.690Z,98489.47
2023-04-01T08:08:09.799Z,98484.47
2023-04-01T08:10:40.093Z,98482.19
2023-04-01T08:13:11.520Z,98477.22
2023-04-01T08:15:42.535Z,98477.09
2023-04-01T08:18:18.145Z,98475.84
2023-04-01T08:20:47.807Z,98468.59
2023-04-01T08:23:16.573Z,98461.78
2023-04-01T08:25:47.395Z,98458.13
2023-04-01T08:28:18.545Z,98455.09
2023-04-01T08:30:49.338Z,98449.16
2023-04-01T08:33:20.760Z,98448.19
2023-04-01T08:35:50.468Z,98451.03
2023-04-01T08:38:20.213Z,98457.72
2023-04-01T08:41:02.160Z,98445.44
2023-04-01T08:43:48.646Z,98440.06
2023-04-01T08:46:49.912Z,98441.59
2023-04-01T08:49:32.951Z,98436.19
2023-04-01T08:52:24.165Z,98434.38
2023-04-01T08:55:04.015Z,98433.44
2023-04-01T08:57:40.253Z,98443.13
2023-04-01T09:00:16.239Z,98456.66
2023-04-01T09:02:56.065Z,98454.22
2023-04-01T09:05:38.654Z,98444.84
2023-04-01T09:08:14.253Z,98437.81
2023-04-01T09:11:13.298Z,98442.34
2023-04-01T09:14:02.183Z,98434.47
2023-04-01T09:17:20.307Z,98438.03
2023-04-01T09:19:56.759Z,98440.91
2023-04-01T09:22:27.957Z,98429.00
2023-04-01T09:25:24.294Z,98425.03
2023-04-01T09:27:58.054Z,98408.53
2023-04-01T09:30:40.323Z,98423.16
2023-04-01T09:33:55.884Z,98418.00
2023-04-01T09:36:32.675Z,98411.47
2023-04-01T09:39:12.146Z,98386.94
2023-04-01T09:41:43.382Z,98402.22
2023-04-01T09:44:13.877Z,98394.34
2023-04-01T09:46:54.156Z,98388.34
2023-04-01T09:49:32.674Z,98392.56
2023-04-01T09:52:08.796Z,98396.06
2023-04-01T09:54:51.102Z,98395.06
2023-04-01T09:57:35.884Z,98395.63
2023-04-01T10:00:23.322Z,98390.06
2023-04-01T10:03:11.778Z,98389.41
2023-04-01T10:06:19.189Z,98389.78
2023-04-01T10:09:16.678Z,98387.97
2023-04-01T10:12:19.903Z,98385.78
2023-04-01T10:15:08.694Z,98380.78
2023-04-01T10:17:48.539Z,98372.91
2023-04-01T10:20:51.214Z,98377.41
2023-04-01T10:23:24.351Z,98368.63
2023-04-01T10:26:26.587Z,98365.00
2023-04-01T10:29:12.176Z,98368.09
2023-04-01T10:31:53.294Z,98363.28
2023-04-01T10:34:52.313Z,98345.72
2023-04-01T10:37:33.783Z,98338.44
2023-04-01T10:40:33.490Z,98337.53
2023-04-01T10:43:41.532Z,98326.09
2023-04-01T10:47:00.472Z,98311.59
2023-04-01T10:49:40.099Z,98311.66
2023-04-01T10:52:42.523Z,98304.06
2023-04-01T10:55:33.477Z,98276.03
2023-04-01T10:58:13.187Z,98269.06
2023-04-01T11:00:55.759Z,98262.06
2023-04-01T11:04:04.062Z,98259.41
2023-04-01T11:07:16.397Z,98256.66
2023-04-01T11:10:13.082Z,98253.56
2023-04-01T11:13:22.498Z,98236.31
2023-04-01T11:16:21.419Z,98239.56
2023-04-01T11:19:26.048Z,98234.19
2023-04-01T11:22:23.086Z,98236.75
2023-04-01T11:25:20.258Z,98239.59
2023-04-01T11:27:58.422Z,98236.34
2023-04-01T11:30:31.384Z,98219.91
2023-04-01T11:33:02.363Z,98222.28
2023-04-01T11:35:56.100Z,98214.09
2023-04-01T11:38:37.597Z,98211.44
2023-04-01T11:41:15.019Z,98220.03
2023-04-01T11:43:46.174Z,98212.75
2023-04-01T11:46:14.647Z,98214.25
2023-04-01T11:48:55.743Z,98207.28
2023-04-01T11:51:33.463Z,98203.81
2023-04-01T11:54:03.011Z,98198.09
2023-04-01T11:56:40.398Z,98182.72
2023-04-01T11:59:41.497Z,98191.47
2023-04-01T12:02:12.768Z,98184.94
2023-04-01T12:05:13.372Z,98175.31
2023-04-01T12:08:06.587Z,98181.69
2023-04-01T12:10:39.559Z,98172.91
2023-04-01T12:13:09.683Z,98175.06
2023-04-01T12:15:44.714Z,98163.28
2023-04-01T12:18:17.305Z,98159.84
2023-04-01T12:20:51.126Z,98150.59
2023-04-01T12:23:31.101Z,98168.59
2023-04-01T12:26:30.081Z,98150.69
2023-04-01T12:29:07.276Z,98148.56
2023-04-01T12:31:40.341Z,98145.97
2023-04-01T12:34:34.897Z,98145.03
2023-04-01T12:37:07.687Z,98138.72
2023-04-01T12:39:47.775Z,98129.22
2023-04-01T12:42:19.946Z,98139.75
2023-04-01T12:44:56.549Z,98124.88
2023-04-01T12:47:53.387Z,98121.22
2023-04-01T12:50:35.804Z,98106.00
2023-04-01T12:53:24.919Z,98113.75
2023-04-01T12:55:54.199Z,98098.63
2023-04-01T12:59:02.387Z,98095.38
2023-04-01T13:01:32.656Z,98108.31
2023-04-01T13:04:15.009Z,98083.28
2023-04-01T13:06:58.019Z,98098.59
2023-04-01T13:09:31.997Z,98101.53
2023-04-01T13:12:11.433Z,98083.28
2023-04-01T13:14:54.960Z,98097.81
2023-04-01T13:17:23.552Z,98084.34
2023-04-01T13:20:02.410Z,98076.47
2023-04-01T13:22:47.976Z,98070.56
2023-04-01T13:25:20.349Z,98071.84
2023-04-01T13:27:51.042Z,98071.13
2023-04-01T13:30:27.430Z,98069.19
2023-04-01T13:33:00.046Z,98072.50
2023-04-01T13:35:39.279Z,98067.47
2023-04-01T13:38:15.695Z,98060.00
2023-04-01T13:41:01.704Z,98055.94
2023-04-01T13:43:33.799Z,98054.88
2023-04-01T13:46:14.864Z,98060.72
2023-04-01T13:49:02.218Z,98066.34
2023-04-01T13:51:45.929Z,98068.06
2023-04-01T13:54:21.155Z,98060.03
2023-04-01T13:56:53.220Z,98060.13
2023-04-01T14:00:00.575Z,98071.97
2023-04-01T14:02:55.927Z,98080.75
2023-04-01T14:05:43.430Z,98082.13
2023-04-01T14:08:16.934Z,98078.44
2023-04-01T14:10:45.903Z,98080.69
2023-04-01T14:13:16.601Z,98079.75
2023-04-01T14:16:04.098Z,98071.41
2023-04-01T14:18:48.983Z,98070.84
2023-04-01T14:21:22.319Z,98069.16
2023-04-01T14:24:02.179Z,98033.44
2023-04-01T14:26:37.590Z,98038.75
2023-04-01T14:29:13.277Z,98039.81
2023-04-01T14:31:56.116Z,98047.31
2023-04-01T14:34:28.482Z,98045.41
2023-04-01T14:37:26.967Z,98051.47
2023-04-01T14:40:18.063Z,98057.06
2023-04-01T14:43:17.556Z,98059.03
2023-04-01T14:45:48.660Z,98073.56
2023-04-01T14:48:23.923Z,98108.06
2023-04-01T14:50:52.508Z,98138.84
2023-04-01T14:53:28.616Z,98173.28
2023-04-01T14:55:57.342Z,98200.16
2023-04-01T14:58:27.360Z,98232.47
2023-04-01T15:01:02.850Z,98249.44
2023-04-01T15:03:34.846Z,98270.88
2023-04-01T15:06:22.531Z,98287.53
2023-04-01T15:08:53.235Z,98302.81
2023-04-01T15:11:27.171Z,98309.72
2023-04-01T15:14:24.963Z,98333.94
2023-04-01T15:16:58.197Z,98346.13
2023-04-01T15:19:33.576Z,98368.09
2023-04-01T15:22:26.959Z,98371.31
2023-04-01T15:25:03.392Z,98399.34
2023-04-01T15:27:37.816Z,98413.06
2023-04-01T15:30:25.195Z,98413.31
2023-04-01T15:33:00.366Z,98418.03
2023-04-01T15:35:39.010Z,98423.34
2023-04-01T15:38:09.278Z,98420.47
2023-04-01T15:40:41.231Z,98407.91
2023-04-01T15:43:18.879Z,98369.00
2023-04-01T15:45:51.726Z,98362.34
2023-04-01T15:48:29.608Z,98359.56
2023-04-01T15:51:03.760Z,98371.75
2023-04-01T15:53:50.079Z,98359.31
2023-04-01T15:56:40.831Z,98341.75
2023-04-01T15:59:16.581Z,98351.19
2023-04-01T16:01:46.992Z,98324.31
2023-04-01T16:04:24.176Z,98333.34
2023-04-01T16:07:01.690Z,98329.81
2023-04-01T16:09:51.655Z,98315.31
2023-04-01T16:12:20.996Z,98320.91
2023-04-01T16:14:57.527Z,98310.84
2023-04-01T16:17:32.227Z,98316.00
2023-04-01T16:20:02.551Z,98315.97
2023-04-01T16:22:33.992Z,98329.56
2023-04-01T16:25:16.611Z,98333.09
2023-04-01T16:27:46.637Z,98336.25
2023-04-01T16:30:26.866Z,98331.78
2023-04-01T16:32:56.996Z,98357.94
2023-04-01T16:35:28.963Z,98379.91
2023-04-01T16:38:01.567Z,98373.31
2023-04-01T16:40:39.549Z,98378.25
2023-04-01T16:43:09.259Z,98388.31
2023-04-01T16:45:38.918Z,98394.28
2023-04-01T16:48:09.896Z,98406.06
2023-04-01T16:50:44.273Z,98399.34
2023-04-01T16:53:18.592Z,98388.41
2023-04-01T16:55:50.217Z,98391.88
2023-04-01T16:58:22.908Z,98392.66
2023-04-01T17:00:52.769Z,98406.28
2023-04-01T17:03:24.453Z,98403.59
2023-04-01T17:06:01.064Z,98424.09
2023-04-01T17:08:36.895Z,98421.84
2023-04-01T17:11:08.232Z,98417.81
2023-04-01T17:13:43.494Z,98419.13
2023-04-01T17:16:29.265Z,98419.22
2023-04-01T17:19:01.909Z,98420.47
2023-04-01T17:21:35.551Z,98395.34
2023-04-01T17:24:11.627Z,98409.38
2023-04-01T17:26:40.897Z,98390.38
2023-04-01T17:29:13.637Z,98384.22
2023-04-01T17:31:49.153Z,98392.56
2023-04-01T17:34:29.134Z,98393.63
2023-04-01T17:37:08.645Z,98396.31
2023-04-01T17:39:47.124Z,98400.47
2023-04-01T17:42:17.352Z,98414.59
2023-04-01T17:44:52.676Z,98392.78
2023-04-01T17:47:46.541Z,98417.56
2023-04-01T17:50:25.332Z,98427.50
2023-04-01T17:53:10.202Z,98429.81
2023-04-01T17:55:47.986Z,98425.06
2023-04-01T17:58:22.379Z,98432.88
2023-04-01T18:00:59.697Z,98431.41
2023-04-01T18:03:40.566Z,98437.78
2023-04-01T18:06:09.936Z,98445.59
2023-04-01T18:08:44.588Z,98446.28
2023-04-01T18:11:18.242Z,98449.56
2023-04-01T18:14:01.654Z,98455.97
2023-04-01T18:16:36.395Z,98465.97
2023-04-01T18:19:08.991Z,98466.59
2023-04-01T18:21:43.388Z,98473.03
2023-04-01T18:24:17.130Z,98493.75
2023-04-01T18:26:48.777Z,98486.59
2023-04-01T18:29:26.130Z,98499.41
2023-04-01T18:31:56.623Z,98512.63
2023-04-01T18:34:38.875Z,98534.75
2023-04-01T18:37:18.419Z,98514.06
2023-04-01T18:39:49.332Z,98548.78
2023-04-01T18:42:22.068Z,98512.59
2023-04-01T18:44:51.321Z,98539.88
2023-04-01T18:47:26.803Z,98546.03
2023-04-01T18:49:56.433Z,98550.50
2023-04-01T18:52:25.481Z,98548.19
2023-04-01T18:55:28.609Z,98553.56
2023-04-01T18:58:02.279Z,98550.03
2023-04-01T19:00:31.244Z,98538.66
2023-04-01T19:03:00.472Z,98535.03
2023-04-01T19:05:32.914Z,98519.59
2023-04-01T19:08:16.956Z,98536.03
2023-04-01T19:10:48.076Z,98536.91
2023-04-01T19:13:21.208Z,98533.59
2023-04-01T19:15:51.441Z,98530.31
2023-04-01T19:18:35.227Z,98527.19
2023-04-01T19:21:04.791Z,98535.69
2023-04-01T19:24:12.253Z,98541.69
2023-04-01T19:26:41.771Z,98550.66
2023-04-01T19:29:19.228Z,98553.97
2023-04-01T19:31:56.646Z,98562.31
2023-04-01T19:34:29.240Z,98562.31
2023-04-01T19:36:58.206Z,98571.78
2023-04-01T19:39:33.648Z,98580.72
2023-04-01T19:42:05.061Z,98581.31
2023-04-01T19:44:39.171Z,98582.34
2023-04-01T19:47:10.133Z,98584.22
2023-04-01T19:49:46.713Z,98589.25
2023-04-01T19:52:16.823Z,98584.91
2023-04-01T19:54:46.816Z,98590.88
2023-04-01T19:57:20.797Z,98597.47
2023-04-01T19:59:52.117Z,98603.69
2023-04-01T20:02:35.596Z,98599.56
2023-04-01T20:05:07.225Z,98609.50
2023-04-01T20:07:37.046Z,98590.44
2023-04-01T20:10:07.104Z,98600.38
2023-04-01T20:12:41.966Z,98600.78
2023-04-01T20:15:23.855Z,98614.03
2023-04-01T20:17:51.883Z,98613.22
2023-04-01T20:20:22.398Z,98612.38
2023-04-01T20:22:58.225Z,98606.84
2023-04-01T20:25:27.874Z,98615.38
2023-04-01T20:27:57.178Z,98612.53
2023-04-01T20:30:47.486Z,98624.16
2023-04-01T20:33:26.369Z,98624.22
2023-04-01T20:36:02.788Z,98621.53
2023-04-01T20:38:54.481Z,98628.19
2023-04-01T20:41:24.565Z,98623.91
2023-04-01T20:43:59.113Z,98622.03
2023-04-01T20:46:30.864Z,98615.22
2023-04-01T20:49:22.862Z,98629.53
2023-04-01T20:51:56.361Z,98624.75
2023-04-01T20:54:42.472Z,98634.94
2023-04-01T20:57:13.403Z,98635.53
2023-04-01T21:00:02.565Z,98634.94
2023-04-01T21:02:44.599Z,98637.44
2023-04-01T21:05:54.754Z,98633.94
2023-04-01T21:08:25.987Z,98638.88
2023-04-01T21:10:59.266Z,98633.09
2023-04-01T21:13:41.434Z,98630.63
2023-04-01T21:16:16.868Z,98637.25
2023-04-01T21:19:06.297Z,98631.47
2023-04-01T21:21:49.148Z,98638.06
2023-04-01T21:24:38.474Z,98645.13
2023-04-01T21:27:09.611Z,98653.38
2023-04-01T21:29:46.452Z,98655.03
2023-04-01T21:32:22.002Z,98645.13
2023-04-01T21:34:57.554Z,98651.72
2023-04-01T21:37:44.266Z,98657.31
2023-04-01T21:40:36.541Z,98652.97
2023-04-01T21:43:07.742Z,98659.78
2023-04-01T21:45:46.003Z,98648.00
2023-04-01T21:48:25.192Z,98630.25
2023-04-01T21:51:28.291Z,98649.41
2023-04-01T21:54:10.725Z,98638.03
2023-04-01T21:57:00.512Z,98647.09
2023-04-01T21:59:44.732Z,98654.56
2023-04-01T22:02:45.227Z,98643.56
2023-04-01T22:05:13.898Z,98650.75
2023-04-01T22:07:45.099Z,98645.00
2023-04-01T22:10:18.212Z,98661.50
2023-04-01T22:12:48.150Z,98643.28
2023-04-01T22:15:19.452Z,98665.38
2023-04-01T22:17:50.527Z,98671.38
2023-04-01T22:20:24.237Z,98668.91
2023-04-01T22:22:59.192Z,98660.81
2023-04-01T22:25:28.953Z,98668.44
2023-04-01T22:27:58.210Z,98675.94
2023-04-01T22:30:26.879Z,98681.50
2023-04-01T22:32:57.754Z,98675.66
2023-04-01T22:35:34.302Z,98677.47
2023-04-01T22:38:08.918Z,98689.91
2023-04-01T22:40:39.294Z,98684.91
2023-04-01T22:43:08.848Z,98685.94
2023-04-01T22:46:00.165Z,98690.75
2023-04-01T22:48:33.973Z,98692.63
2023-04-01T22:51:05.483Z,98691.97
2023-04-01T22:53:41.828Z,98675.75
2023-04-01T22:56:13.266Z,98685.56
2023-04-01T22:58:43.038Z,98678.69
2023-04-01T23:01:14.419Z,98679.31
2023-04-01T23:03:43.485Z,98682.22
2023-04-01T23:06:14.708Z,98668.38
2023-04-01T23:09:08.956Z,98668.75
2023-04-01T23:11:39.530Z,98675.94
2023-04-01T23:14:45.350Z,98667.50
2023-04-01T23:17:32.654Z,98665.84
2023-04-01T23:20:04.177Z,98670.78
2023-04-01T23:22:34.118Z,98674.44
2023-04-01T23:25:13.263Z,98667.88
2023-04-01T23:27:42.782Z,98666.38
2023-04-01T23:30:22.106Z,98671.19
2023-04-01T23:32:50.119Z,98671.19
2023-04-01T23:35:18.397Z,98672.03
2023-04-01T23:37:46.393Z,98671.56
2023-04-01T23:40:16.299Z,98665.34
2023-04-01T23:42:44.296Z,98668.66
2023-04-01T23:45:18.183Z,98669.41
2023-04-01T23:47:47.057Z,98657.59
2023-04-01T23:50:16.924Z,98657.03
2023-04-01T23:52:45.875Z,98651.63
2023-04-01T23:55:16.898Z,98644.59
2023-04-01T23:57:44.793Z,98652.22
